sensor_id;sensor_type;location;lat;lon;timestamp;pressure;altitude;pressure_sealevel;temperature;humidity
62055;BME280;48653;51.742;-1.256;2023-11-19T00:03:46;100023.58;;;10.33;56.07
62055;BME280;48653;51.742;-1.256;2023-11-19T00:06:11;100028.59;;;10.92;55.76
62055;BME280;48653;51.742;-1.256;2023-11-19T00:08:36;100036.30;;;11.55;54.68
62055;BME280;48653;51.742;-1.256;2023-11-19T00:11:02;100036.59;;;11.42;54.74
62055;BME280;48653;51.742;-1.256;2023-11-19T00:13:27;100043.25;;;11.52;55.82
62055;BME280;48653;51.742;-1.256;2023-11-19T00:15:52;100045.82;;;11.47;55.75
62055;BME280;48653;51.742;-1.256;2023-11-19T00:18:17;100057.87;;;10.95;56.96
62055;BME280;48653;51.742;-1.256;2023-11-19T00:20:43;100056.37;;;10.88;56.98
62055;BME280;48653;51.742;-1.256;2023-11-19T00:23:08;100063.10;;;10.77;56.74
62055;BME280;48653;51.742;-1.256;2023-11-19T00:25:34;100060.37;;;10.42;57.84
62055;BME280;48653;51.742;-1.256;2023-11-19T00:27:59;100071.11;;;10.65;57.35
62055;BME280;48653;51.742;-1.256;2023-11-19T00:30:24;100055.15;;;11.54;55.78
62055;BME280;48653;51.742;-1.256;2023-11-19T00:32:49;100051.31;;;11.22;55.81
62055;BME280;48653;51.742;-1.256;2023-11-19T00:35:15;100050.85;;;10.44;57.73
62055;BME280;48653;51.742;-1.256;2023-11-19T00:37:40;100055.00;;;11.19;55.92
62055;BME280;48653;51.742;-1.256;2023-11-19T00:40:07;100048.66;;;11.36;55.25
62055;BME280;48653;51.742;-1.256;2023-11-19T00:42:31;100043.93;;;11.24;55.87
62055;BME280;48653;51.742;-1.256;2023-11-19T00:44:56;100042.50;;;10.59;56.49
62055;BME280;48653;51.742;-1.256;2023-11-19T00:47:21;100041.78;;;10.36;57.88
62055;BME280;48653;51.742;-1.256;2023-11-19T00:49:47;100035.17;;;10.10;58.95
62055;BME280;48653;51.742;-1.256;2023-11-19T00:52:12;100033.84;;;10.80;57.23
62055;BME280;48653;51.742;-1.256;2023-11-19T00:54:38;100026.54;;;10.13;59.71
62055;BME280;48653;51.742;-1.256;2023-11-19T00:57:03;100025.09;;;10.33;58.53
62055;BME280;48653;51.742;-1.256;2023-11-19T00:59:28;100025.38;;;10.87;57.27
62055;BME280;48653;51.742;-1.256;2023-11-19T01:01:54;100015.26;;;10.60;57.76
62055;BME280;48653;51.742;-1.256;2023-11-19T01:04:19;100020.30;;;10.02;59.51
62055;BME280;48653;51.742;-1.256;2023-11-19T01:06:45;100008.85;;;9.68;59.71
62055;BME280;48653;51.742;-1.256;2023-11-19T01:09:10;100008.28;;;10.38;59.05
62055;BME280;48653;51.742;-1.256;2023-11-19T01:11:36;100007.15;;;9.87;59.88
62055;BME280;48653;51.742;-1.256;2023-11-19T01:14:01;100016.75;;;9.82;59.89
62055;BME280;48653;51.742;-1.256;2023-11-19T01:16:27;100004.63;;;10.33;58.92
62055;BME280;48653;51.742;-1.256;2023-11-19T01:18:53;100006.60;;;9.87;59.60
62055;BME280;48653;51.742;-1.256;2023-11-19T01:21:18;100011.93;;;10.20;57.65
62055;BME280;48653;51.742;-1.256;2023-11-19T01:23:45;100019.88;;;10.03;58.62
62055;BME280;48653;51.742;-1.256;2023-11-19T01:26:10;100007.96;;;9.32;60.66
62055;BME280;48653;51.742;-1.256;2023-11-19T01:28:35;100009.15;;;9.44;60.94
62055;BME280;48653;51.742;-1.256;2023-11-19T01:31:00;100002.90;;;9.72;60.32
62055;BME280;48653;51.742;-1.256;2023-11-19T01:33:26;99997.61;;;9.31;59.78
62055;BME280;48653;51.742;-1.256;2023-11-19T01:35:51;99993.08;;;10.09;58.09
62055;BME280;48653;51.742;-1.256;2023-11-19T01:38:17;99996.59;;;10.14;58.08
62055;BME280;48653;51.742;-1.256;2023-11-19T01:40:42;99992.02;;;9.51;59.70
62055;BME280;48653;51.742;-1.256;2023-11-19T01:43:08;99987.45;;;10.48;56.98
62055;BME280;48653;51.742;-1.256;2023-11-19T01:45:34;99984.26;;;10.11;58.04
62055;BME280;48653;51.742;-1.256;2023-11-19T01:48:00;99985.79;;;9.75;58.38
62055;BME280;48653;51.742;-1.256;2023-11-19T01:50:24;99991.53;;;10.23;56.97
62055;BME280;48653;51.742;-1.256;2023-11-19T01:52:49;99986.67;;;10.13;56.83
62055;BME280;48653;51.742;-1.256;2023-11-19T01:55:14;99987.36;;;10.45;56.38
62055;BME280;48653;51.742;-1.256;2023-11-19T01:57:40;100003.69;;;9.74;58.20
62055;BME280;48653;51.742;-1.256;2023-11-19T02:00:07;100000.26;;;10.02;57.78
62055;BME280;48653;51.742;-1.256;2023-11-19T02:02:30;99998.54;;;9.73;57.95
62055;BME280;48653;51.742;-1.256;2023-11-19T02:04:56;100004.61;;;10.27;56.10
62055;BME280;48653;51.742;-1.256;2023-11-19T02:07:21;99987.08;;;9.68;58.01
62055;BME280;48653;51.742;-1.256;2023-11-19T02:09:46;99993.15;;;10.28;57.01
62055;BME280;48653;51.742;-1.256;2023-11-19T02:12:12;99991.00;;;10.53;56.36
62055;BME280;48653;51.742;-1.256;2023-11-19T02:14:38;99998.13;;;9.58;58.16
62055;BME280;48653;51.742;-1.256;2023-11-19T02:17:03;99992.53;;;9.19;58.98
62055;BME280;48653;51.742;-1.256;2023-11-19T02:19:28;99987.00;;;9.85;57.70
62055;BME280;48653;51.742;-1.256;2023-11-19T02:21:53;99985.07;;;9.77;57.60
62055;BME280;48653;51.742;-1.256;2023-11-19T02:24:22;99980.92;;;9.88;57.56
62055;BME280;48653;51.742;-1.256;2023-11-19T02:26:52;99986.65;;;10.59;56.45
62055;BME280;48653;51.742;-1.256;2023-11-19T02:29:12;99974.12;;;9.98;57.61
62055;BME280;48653;51.742;-1.256;2023-11-19T02:31:36;99974.38;;;9.94;57.57
62055;BME280;48653;51.742;-1.256;2023-11-19T02:34:01;99957.75;;;9.82;58.36
62055;BME280;48653;51.742;-1.256;2023-11-19T02:36:26;99962.05;;;9.88;57.83
62055;BME280;48653;51.742;-1.256;2023-11-19T02:38:52;99961.65;;;9.98;57.88
62055;BME280;48653;51.742;-1.256;2023-11-19T02:41:17;99954.95;;;10.27;57.38
62055;BME280;48653;51.742;-1.256;2023-11-19T02:43:43;99949.77;;;9.69;58.10
62055;BME280;48653;51.742;-1.256;2023-11-19T02:46:09;99947.74;;;9.93;58.21
62055;BME280;48653;51.742;-1.256;2023-11-19T02:48:35;99942.19;;;9.53;59.45
62055;BME280;48653;51.742;-1.256;2023-11-19T02:51:00;99956.26;;;9.25;60.42
62055;BME280;48653;51.742;-1.256;2023-11-19T02:53:25;99963.31;;;9.81;58.57
62055;BME280;48653;51.742;-1.256;2023-11-19T02:55:50;99964.34;;;9.36;59.94
62055;BME280;48653;51.742;-1.256;2023-11-19T02:58:15;99967.57;;;9.40;60.38
62055;BME280;48653;51.742;-1.256;2023-11-19T03:00:41;99977.83;;;8.94;62.29
62055;BME280;48653;51.742;-1.256;2023-11-19T03:03:06;99974.47;;;8.83;63.33
62055;BME280;48653;51.742;-1.256;2023-11-19T03:05:32;99965.67;;;8.68;62.46
62055;BME280;48653;51.742;-1.256;2023-11-19T03:07:57;99962.20;;;8.82;61.78
62055;BME280;48653;51.742;-1.256;2023-11-19T03:10:22;99952.96;;;8.95;62.48
62055;BME280;48653;51.742;-1.256;2023-11-19T03:12:47;99952.71;;;8.91;63.47
62055;BME280;48653;51.742;-1.256;2023-11-19T03:15:13;99949.13;;;8.56;64.00
62055;BME280;48653;51.742;-1.256;2023-11-19T03:17:39;99942.03;;;8.89;62.58
62055;BME280;48653;51.742;-1.256;2023-11-19T03:20:05;99946.61;;;9.10;61.42
62055;BME280;48653;51.742;-1.256;2023-11-19T03:22:29;99950.74;;;8.87;61.74
62055;BME280;48653;51.742;-1.256;2023-11-19T03:24:54;99943.49;;;9.21;61.01
62055;BME280;48653;51.742;-1.256;2023-11-19T03:27:20;99938.12;;;8.67;62.48
62055;BME280;48653;51.742;-1.256;2023-11-19T03:29:46;99941.46;;;8.67;62.52
62055;BME280;48653;51.742;-1.256;2023-11-19T03:32:11;99936.99;;;9.50;61.10
62055;BME280;48653;51.742;-1.256;2023-11-19T03:34:37;99931.52;;;9.13;60.70
62055;BME280;48653;51.742;-1.256;2023-11-19T03:37:03;99926.14;;;8.50;62.46
62055;BME280;48653;51.742;-1.256;2023-11-19T03:39:28;99933.93;;;9.09;61.46
62055;BME280;48653;51.742;-1.256;2023-11-19T03:41:53;99930.53;;;8.74;62.11
62055;BME280;48653;51.742;-1.256;2023-11-19T03:44:18;99931.69;;;9.43;59.98
62055;BME280;48653;51.742;-1.256;2023-11-19T03:46:44;99927.18;;;9.45;60.12
62055;BME280;48653;51.742;-1.256;2023-11-19T03:49:09;99933.03;;;8.95;61.89
62055;BME280;48653;51.742;-1.256;2023-11-19T03:51:35;99940.07;;;9.09;60.25
62055;BME280;48653;51.742;-1.256;2023-11-19T03:54:00;99943.53;;;9.39;59.86
62055;BME280;48653;51.742;-1.256;2023-11-19T03:56:26;99943.89;;;9.66;59.12
62055;BME280;48653;51.742;-1.256;2023-11-19T03:58:51;99946.93;;;9.51;59.69
62055;BME280;48653;51.742;-1.256;2023-11-19T04:01:16;99950.07;;;10.07;58.70
62055;BME280;48653;51.742;-1.256;2023-11-19T04:03:42;99942.72;;;10.02;58.10
62055;BME280;48653;51.742;-1.256;2023-11-19T04:06:08;99945.24;;;9.80;58.32
62055;BME280;48653;51.742;-1.256;2023-11-19T04:08:33;99933.78;;;9.52;59.04
62055;BME280;48653;51.742;-1.256;2023-11-19T04:10:58;99944.55;;;9.40;59.09
62055;BME280;48653;51.742;-1.256;2023-11-19T04:13:23;99946.48;;;10.25;57.54
62055;BME280;48653;51.742;-1.256;2023-11-19T04:15:49;99956.48;;;9.39;59.64
62055;BME280;48653;51.742;-1.256;2023-11-19T04:18:14;99957.84;;;10.54;57.21
62055;BME280;48653;51.742;-1.256;2023-11-19T04:20:39;99970.11;;;10.13;57.90
62055;BME280;48653;51.742;-1.256;2023-11-19T04:23:05;99960.29;;;10.87;56.23
62055;BME280;48653;51.742;-1.256;2023-11-19T04:25:30;99977.52;;;10.44;57.08
62055;BME280;48653;51.742;-1.256;2023-11-19T04:27:55;99979.54;;;10.68;57.09
62055;BME280;48653;51.742;-1.256;2023-11-19T04:30:21;99973.58;;;10.92;56.06
62055;BME280;48653;51.742;-1.256;2023-11-19T04:32:46;99973.71;;;10.67;55.45
62055;BME280;48653;51.742;-1.256;2023-11-19T04:35:12;99979.13;;;11.29;54.36
62055;BME280;48653;51.742;-1.256;2023-11-19T04:37:38;99970.95;;;10.65;55.29
62055;BME280;48653;51.742;-1.256;2023-11-19T04:40:04;99964.10;;;10.61;55.06
62055;BME280;48653;51.742;-1.256;2023-11-19T04:42:28;99963.24;;;10.17;56.08
62055;BME280;48653;51.742;-1.256;2023-11-19T04:44:53;99962.02;;;10.61;55.89
62055;BME280;48653;51.742;-1.256;2023-11-19T04:47:18;99966.86;;;10.20;56.93
62055;BME280;48653;51.742;-1.256;2023-11-19T04:49:44;99969.80;;;9.77;57.69
62055;BME280;48653;51.742;-1.256;2023-11-19T04:52:09;99973.07;;;9.67;58.89
62055;BME280;48653;51.742;-1.256;2023-11-19T04:54:34;99984.58;;;9.43;60.10
62055;BME280;48653;51.742;-1.256;2023-11-19T04:57:00;99987.22;;;9.60;60.42
62055;BME280;48653;51.742;-1.256;2023-11-19T04:59:26;99985.17;;;9.72;61.23
62055;BME280;48653;51.742;-1.256;2023-11-19T05:01:51;99970.87;;;10.00;61.18
62055;BME280;48653;51.742;-1.256;2023-11-19T05:04:16;99961.88;;;9.52;62.46
62055;BME280;48653;51.742;-1.256;2023-11-19T05:06:44;99971.48;;;8.77;64.03
62055;BME280;48653;51.742;-1.256;2023-11-19T05:09:08;99966.36;;;8.65;64.29
62055;BME280;48653;51.742;-1.256;2023-11-19T05:11:34;99966.89;;;8.48;64.49
62055;BME280;48653;51.742;-1.256;2023-11-19T05:14:01;99970.35;;;8.98;63.49
62055;BME280;48653;51.742;-1.256;2023-11-19T05:16:24;99969.56;;;9.02;63.38
62055;BME280;48653;51.742;-1.256;2023-11-19T05:18:50;99968.98;;;9.58;62.00
62055;BME280;48653;51.742;-1.256;2023-11-19T05:21:16;99969.15;;;9.42;62.32
62055;BME280;48653;51.742;-1.256;2023-11-19T05:23:41;99959.35;;;10.00;60.49
62055;BME280;48653;51.742;-1.256;2023-11-19T05:26:06;99969.71;;;9.32;61.94
62055;BME280;48653;51.742;-1.256;2023-11-19T05:28:31;99964.37;;;9.58;61.69
62055;BME280;48653;51.742;-1.256;2023-11-19T05:30:57;99969.39;;;9.63;62.56
62055;BME280;48653;51.742;-1.256;2023-11-19T05:33:22;99969.76;;;9.38;63.07
62055;BME280;48653;51.742;-1.256;2023-11-19T05:35:47;99964.22;;;9.61;61.10
62055;BME280;48653;51.742;-1.256;2023-11-19T05:38:12;99961.73;;;10.49;59.36
62055;BME280;48653;51.742;-1.256;2023-11-19T05:40:38;99961.45;;;10.23;59.92
62055;BME280;48653;51.742;-1.256;2023-11-19T05:43:03;99962.01;;;9.44;61.65
62055;BME280;48653;51.742;-1.256;2023-11-19T05:45:28;99954.97;;;9.33;61.75
62055;BME280;48653;51.742;-1.256;2023-11-19T05:47:54;99951.22;;;9.06;63.41
62055;BME280;48653;51.742;-1.256;2023-11-19T05:50:19;99950.84;;;8.90;64.00
62055;BME280;48653;51.742;-1.256;2023-11-19T05:52:45;99957.37;;;9.39;62.06
62055;BME280;48653;51.742;-1.256;2023-11-19T05:55:10;99957.85;;;9.68;60.90
62055;BME280;48653;51.742;-1.256;2023-11-19T05:57:36;99960.92;;;8.88;61.84
62055;BME280;48653;51.742;-1.256;2023-11-19T06:00:01;99967.05;;;9.21;61.32
62055;BME280;48653;51.742;-1.256;2023-11-19T06:02:26;99962.14;;;9.11;61.47
62055;BME280;48653;51.742;-1.256;2023-11-19T06:04:51;99960.73;;;9.29;61.12
62055;BME280;48653;51.742;-1.256;2023-11-19T06:07:16;99962.20;;;9.32;61.02
62055;BME280;48653;51.742;-1.256;2023-11-19T06:09:42;99966.31;;;9.31;61.83
62055;BME280;48653;51.742;-1.256;2023-11-19T06:12:08;99964.73;;;8.82;62.49
62055;BME280;48653;51.742;-1.256;2023-11-19T06:14:33;99970.12;;;9.43;61.13
62055;BME280;48653;51.742;-1.256;2023-11-19T06:16:58;99962.63;;;9.32;61.51
62055;BME280;48653;51.742;-1.256;2023-11-19T06:19:23;99962.39;;;9.97;59.89
62055;BME280;48653;51.742;-1.256;2023-11-19T06:21:49;99960.26;;;9.73;60.27
62055;BME280;48653;51.742;-1.256;2023-11-19T06:24:14;99960.60;;;9.50;60.61
62055;BME280;48653;51.742;-1.256;2023-11-19T06:26:39;99959.53;;;9.25;59.93
62055;BME280;48653;51.742;-1.256;2023-11-19T06:29:04;99956.01;;;10.16;58.65
62055;BME280;48653;51.742;-1.256;2023-11-19T06:31:29;99956.21;;;9.90;58.23
62055;BME280;48653;51.742;-1.256;2023-11-19T06:33:54;99949.15;;;10.59;56.64
62055;BME280;48653;51.742;-1.256;2023-11-19T06:36:20;99950.80;;;10.40;57.17
62055;BME280;48653;51.742;-1.256;2023-11-19T06:38:45;99948.98;;;10.33;57.52
62055;BME280;48653;51.742;-1.256;2023-11-19T06:41:10;99948.26;;;9.67;58.82
62055;BME280;48653;51.742;-1.256;2023-11-19T06:43:36;99937.72;;;9.63;58.01
62055;BME280;48653;51.742;-1.256;2023-11-19T06:46:01;99936.46;;;10.35;56.58
62055;BME280;48653;51.742;-1.256;2023-11-19T06:48:26;99944.63;;;9.78;57.06
62055;BME280;48653;51.742;-1.256;2023-11-19T06:50:51;99948.47;;;10.03;56.98
62055;BME280;48653;51.742;-1.256;2023-11-19T06:53:17;99947.20;;;10.09;56.44
62055;BME280;48653;51.742;-1.256;2023-11-19T06:55:42;99943.82;;;9.69;57.30
62055;BME280;48653;51.742;-1.256;2023-11-19T06:58:07;99954.43;;;9.65;57.82
62055;BME280;48653;51.742;-1.256;2023-11-19T07:00:32;99960.00;;;9.60;57.94
62055;BME280;48653;51.742;-1.256;2023-11-19T07:02:58;99968.77;;;9.13;59.37
62055;BME280;48653;51.742;-1.256;2023-11-19T07:05:23;99959.74;;;9.56;57.81
62055;BME280;48653;51.742;-1.256;2023-11-19T07:07:51;99954.96;;;9.18;58.77
62055;BME280;48653;51.742;-1.256;2023-11-19T07:10:15;99952.71;;;9.69;57.89
62055;BME280;48653;51.742;-1.256;2023-11-19T07:12:40;99950.47;;;9.46;57.98
62055;BME280;48653;51.742;-1.256;2023-11-19T07:15:07;99944.63;;;9.33;58.72
62055;BME280;48653;51.742;-1.256;2023-11-19T07:17:31;99954.66;;;8.96;59.37
62055;BME280;48653;51.742;-1.256;2023-11-19T07:19:56;99955.83;;;9.29;58.67
62055;BME280;48653;51.742;-1.256;2023-11-19T07:22:21;99956.92;;;9.26;58.88
62055;BME280;48653;51.742;-1.256;2023-11-19T07:24:46;99960.19;;;9.35;58.67
62055;BME280;48653;51.742;-1.256;2023-11-19T07:27:11;99964.58;;;9.27;58.85
62055;BME280;48653;51.742;-1.256;2023-11-19T07:29:37;99963.54;;;9.64;57.83
62055;BME280;48653;51.742;-1.256;2023-11-19T07:32:03;99963.35;;;8.70;59.88
62055;BME280;48653;51.742;-1.256;2023-11-19T07:34:28;99980.95;;;9.27;59.82
62055;BME280;48653;51.742;-1.256;2023-11-19T07:36:53;99979.93;;;9.22;60.61
62055;BME280;48653;51.742;-1.256;2023-11-19T07:39:18;99981.09;;;9.76;59.78
62055;BME280;48653;51.742;-1.256;2023-11-19T07:41:43;99971.63;;;9.68;60.11
62055;BME280;48653;51.742;-1.256;2023-11-19T07:44:08;99974.10;;;8.92;61.63
62055;BME280;48653;51.742;-1.256;2023-11-19T07:46:34;99980.73;;;9.38;60.96
62055;BME280;48653;51.742;-1.256;2023-11-19T07:48:59;99972.21;;;9.22;61.87
62055;BME280;48653;51.742;-1.256;2023-11-19T07:51:24;99969.77;;;9.25;60.98
62055;BME280;48653;51.742;-1.256;2023-11-19T07:53:50;99971.25;;;9.28;60.60
62055;BME280;48653;51.742;-1.256;2023-11-19T07:56:15;99964.58;;;9.32;60.58
62055;BME280;48653;51.742;-1.256;2023-11-19T07:58:40;99965.77;;;9.33;60.30
62055;BME280;48653;51.742;-1.256;2023-11-19T08:01:05;99970.81;;;9.18;61.53
62055;BME280;48653;51.742;-1.256;2023-11-19T08:03:30;99976.42;;;9.73;60.65
62055;BME280;48653;51.742;-1.256;2023-11-19T08:05:55;99968.05;;;9.80;59.75
62055;BME280;48653;51.742;-1.256;2023-11-19T08:08:21;99961.37;;;9.71;59.80
62055;BME280;48653;51.742;-1.256;2023-11-19T08:10:46;99965.71;;;9.81;59.44
62055;BME280;48653;51.742;-1.256;2023-11-19T08:13:12;99963.12;;;10.05;58.19
62055;BME280;48653;51.742;-1.256;2023-11-19T08:15:37;99967.89;;;9.91;58.48
62055;BME280;48653;51.742;-1.256;2023-11-19T08:18:02;99974.28;;;9.52;58.94
62055;BME280;48653;51.742;-1.256;2023-11-19T08:20:28;99964.21;;;9.50;59.19
62055;BME280;48653;51.742;-1.256;2023-11-19T08:22:54;99968.05;;;10.08;57.87
62055;BME280;48653;51.742;-1.256;2023-11-19T08:25:19;99965.22;;;9.71;58.03
62055;BME280;48653;51.742;-1.256;2023-11-19T08:27:44;99970.11;;;10.24;57.91
62055;BME280;48653;51.742;-1.256;2023-11-19T08:30:11;99968.36;;;10.15;58.01
62055;BME280;48653;51.742;-1.256;2023-11-19T08:32:35;99970.91;;;9.61;59.24
62055;BME280;48653;51.742;-1.256;2023-11-19T08:35:01;99978.90;;;10.15;58.50
62055;BME280;48653;51.742;-1.256;2023-11-19T08:37:25;99981.72;;;9.55;60.50
62055;BME280;48653;51.742;-1.256;2023-11-19T08:39:51;99983.91;;;9.44;61.22
62055;BME280;48653;51.742;-1.256;2023-11-19T08:42:16;99981.49;;;9.94;60.31
62055;BME280;48653;51.742;-1.256;2023-11-19T08:44:41;99977.59;;;9.87;60.58
62055;BME280;48653;51.742;-1.256;2023-11-19T08:47:06;99977.13;;;9.63;61.32
62055;BME280;48653;51.742;-1.256;2023-11-19T08:49:31;99967.99;;;9.75;61.11
62055;BME280;48653;51.742;-1.256;2023-11-19T08:51:56;99972.65;;;9.34;62.87
62055;BME280;48653;51.742;-1.256;2023-11-19T08:54:21;99973.52;;;9.78;61.38
62055;BME280;48653;51.742;-1.256;2023-11-19T08:56:47;99968.63;;;9.54;61.57
62055;BME280;48653;51.742;-1.256;2023-11-19T08:59:12;99967.14;;;9.91;60.80
62055;BME280;48653;51.742;-1.256;2023-11-19T09:01:38;99971.76;;;9.79;61.14
62055;BME280;48653;51.742;-1.256;2023-11-19T09:04:03;99962.64;;;10.26;59.13
62055;BME280;48653;51.742;-1.256;2023-11-19T09:06:28;99952.14;;;10.14;59.70
62055;BME280;48653;51.742;-1.256;2023-11-19T09:08:54;99944.25;;;10.45;58.95
62055;BME280;48653;51.742;-1.256;2023-11-19T09:11:19;99946.64;;;11.08;57.49
62055;BME280;48653;51.742;-1.256;2023-11-19T09:13:44;99946.60;;;10.81;58.08
62055;BME280;48653;51.742;-1.256;2023-11-19T09:16:11;99939.86;;;11.31;56.15
62055;BME280;48653;51.742;-1.256;2023-11-19T09:18:35;99938.09;;;11.47;54.78
62055;BME280;48653;51.742;-1.256;2023-11-19T09:21:00;99938.21;;;10.97;56.47
62055;BME280;48653;51.742;-1.256;2023-11-19T09:23:25;99940.19;;;10.88;57.67
62055;BME280;48653;51.742;-1.256;2023-11-19T09:25:50;99939.24;;;10.55;58.68
62055;BME280;48653;51.742;-1.256;2023-11-19T09:28:16;99939.27;;;10.52;58.90
62055;BME280;48653;51.742;-1.256;2023-11-19T09:30:41;99945.62;;;10.54;58.55
62055;BME280;48653;51.742;-1.256;2023-11-19T09:33:06;99939.46;;;10.29;59.88
62055;BME280;48653;51.742;-1.256;2023-11-19T09:35:32;99937.54;;;10.10;60.07
62055;BME280;48653;51.742;-1.256;2023-11-19T09:37:57;99935.52;;;10.46;59.49
62055;BME280;48653;51.742;-1.256;2023-11-19T09:40:22;99933.12;;;10.60;58.65
62055;BME280;48653;51.742;-1.256;2023-11-19T09:42:48;99945.60;;;10.46;59.13
62055;BME280;48653;51.742;-1.256;2023-11-19T09:45:14;99933.30;;;10.42;59.63
62055;BME280;48653;51.742;-1.256;2023-11-19T09:47:38;99933.69;;;10.80;58.99
62055;BME280;48653;51.742;-1.256;2023-11-19T09:50:03;99942.92;;;10.67;58.75
62055;BME280;48653;51.742;-1.256;2023-11-19T09:52:28;99949.17;;;10.44;59.91
62055;BME280;48653;51.742;-1.256;2023-11-19T09:54:54;99951.23;;;10.35;59.79
62055;BME280;48653;51.742;-1.256;2023-11-19T09:57:19;99949.44;;;10.33;60.13
62055;BME280;48653;51.742;-1.256;2023-11-19T09:59:45;99947.96;;;10.47;59.11
62055;BME280;48653;51.742;-1.256;2023-11-19T10:02:10;99954.41;;;10.44;59.13
62055;BME280;48653;51.742;-1.256;2023-11-19T10:04:35;99955.45;;;10.54;59.34
62055;BME280;48653;51.742;-1.256;2023-11-19T10:07:00;99954.77;;;10.46;59.66
62055;BME280;48653;51.742;-1.256;2023-11-19T10:09:25;99956.77;;;10.16;58.92
62055;BME280;48653;51.742;-1.256;2023-11-19T10:11:51;99955.27;;;10.02;59.89
62055;BME280;48653;51.742;-1.256;2023-11-19T10:14:16;99955.18;;;10.55;58.63
62055;BME280;48653;51.742;-1.256;2023-11-19T10:16:42;99959.03;;;10.29;59.40
62055;BME280;48653;51.742;-1.256;2023-11-19T10:19:06;99953.32;;;10.21;59.27
62055;BME280;48653;51.742;-1.256;2023-11-19T10:21:33;99956.64;;;11.12;57.25
62055;BME280;48653;51.742;-1.256;2023-11-19T10:23:57;99957.19;;;10.57;58.17
62055;BME280;48653;51.742;-1.256;2023-11-19T10:26:23;99958.12;;;11.14;57.30
62055;BME280;48653;51.742;-1.256;2023-11-19T10:28:48;99945.50;;;10.91;56.01
62055;BME280;48653;51.742;-1.256;2023-11-19T10:31:13;99946.48;;;10.57;57.07
62055;BME280;48653;51.742;-1.256;2023-11-19T10:33:38;99936.46;;;10.34;56.52
62055;BME280;48653;51.742;-1.256;2023-11-19T10:36:05;99928.79;;;10.59;57.15
62055;BME280;48653;51.742;-1.256;2023-11-19T10:38:30;99941.19;;;10.50;57.63
62055;BME280;48653;51.742;-1.256;2023-11-19T10:40:55;99928.89;;;10.59;57.20
62055;BME280;48653;51.742;-1.256;2023-11-19T10:43:21;99919.45;;;10.99;57.36
62055;BME280;48653;51.742;-1.256;2023-11-19T10:45:45;99929.95;;;10.64;57.29
62055;BME280;48653;51.742;-1.256;2023-11-19T10:48:11;99922.22;;;11.06;57.31
62055;BME280;48653;51.742;-1.256;2023-11-19T10:50:37;99919.49;;;10.47;59.65
62055;BME280;48653;51.742;-1.256;2023-11-19T10:53:02;99923.20;;;10.07;60.16
62055;BME280;48653;51.742;-1.256;2023-11-19T10:55:27;99933.05;;;10.17;61.01
62055;BME280;48653;51.742;-1.256;2023-11-19T10:57:51;99918.79;;;9.56;61.78
62055;BME280;48653;51.742;-1.256;2023-11-19T11:00:18;99926.51;;;10.82;58.88
62055;BME280;48653;51.742;-1.256;2023-11-19T11:02:45;99924.46;;;10.70;59.29
62055;BME280;48653;51.742;-1.256;2023-11-19T11:05:07;99933.12;;;9.94;61.19
62055;BME280;48653;51.742;-1.256;2023-11-19T11:07:31;99934.19;;;10.30;60.58
62055;BME280;48653;51.742;-1.256;2023-11-19T11:09:57;99925.63;;;10.66;59.51
62055;BME280;48653;51.742;-1.256;2023-11-19T11:12:24;99920.30;;;11.17;57.92
62055;BME280;48653;51.742;-1.256;2023-11-19T11:14:48;99916.38;;;11.22;57.77
62055;BME280;48653;51.742;-1.256;2023-11-19T11:17:17;99930.45;;;11.49;57.29
62055;BME280;48653;51.742;-1.256;2023-11-19T11:19:38;99930.39;;;11.12;57.91
62055;BME280;48653;51.742;-1.256;2023-11-19T11:22:04;99931.95;;;11.11;57.75
62055;BME280;48653;51.742;-1.256;2023-11-19T11:24:42;99930.89;;;10.84;59.67
62055;BME280;48653;51.742;-1.256;2023-11-19T11:27:06;99931.79;;;10.45;61.83
62055;BME280;48653;51.742;-1.256;2023-11-19T11:29:26;99935.37;;;10.19;63.04
62055;BME280;48653;51.742;-1.256;2023-11-19T11:31:51;99933.54;;;10.37;62.29
62055;BME280;48653;51.742;-1.256;2023-11-19T11:34:25;99927.20;;;10.63;61.48
62055;BME280;48653;51.742;-1.256;2023-11-19T11:36:41;99941.33;;;9.88;63.43
62055;BME280;48653;51.742;-1.256;2023-11-19T11:39:00;99925.87;;;10.07;62.96
62055;BME280;48653;51.742;-1.256;2023-11-19T11:41:25;99919.21;;;10.74;60.81
62055;BME280;48653;51.742;-1.256;2023-11-19T11:43:51;99923.55;;;10.99;60.41
62055;BME280;48653;51.742;-1.256;2023-11-19T11:48:43;99909.46;;;10.29;62.60
62055;BME280;48653;51.742;-1.256;2023-11-19T11:51:06;99907.95;;;10.90;60.82
62055;BME280;48653;51.742;-1.256;2023-11-19T11:53:31;99905.40;;;11.34;59.59
62055;BME280;48653;51.742;-1.256;2023-11-19T11:55:57;99902.17;;;10.51;61.58
62055;BME280;48653;51.742;-1.256;2023-11-19T11:58:25;99911.40;;;11.18;59.25
62055;BME280;48653;51.742;-1.256;2023-11-19T12:00:47;99913.31;;;10.64;61.55
62055;BME280;48653;51.742;-1.256;2023-11-19T12:03:12;99911.17;;;10.74;61.11
62055;BME280;48653;51.742;-1.256;2023-11-19T12:05:39;99910.33;;;11.21;60.80
62055;BME280;48653;51.742;-1.256;2023-11-19T12:08:04;99910.14;;;10.74;60.99
62055;BME280;48653;51.742;-1.256;2023-11-19T12:10:30;99915.06;;;11.04;59.99
62055;BME280;48653;51.742;-1.256;2023-11-19T12:12:53;99914.30;;;10.85;60.60
62055;BME280;48653;51.742;-1.256;2023-11-19T12:15:18;99904.87;;;10.81;61.95
62055;BME280;48653;51.742;-1.256;2023-11-19T12:17:47;99902.89;;;11.02;60.79
62055;BME280;48653;51.742;-1.256;2023-11-19T12:20:08;99892.84;;;10.44;62.75
62055;BME280;48653;51.742;-1.256;2023-11-19T12:22:34;99899.32;;;10.77;61.92
62055;BME280;48653;51.742;-1.256;2023-11-19T12:24:58;99899.65;;;9.86;64.17
62055;BME280;48653;51.742;-1.256;2023-11-19T12:27:23;99906.18;;;11.04;61.70
62055;BME280;48653;51.742;-1.256;2023-11-19T12:29:48;99901.35;;;10.00;63.84
62055;BME280;48653;51.742;-1.256;2023-11-19T12:32:14;99894.08;;;9.96;64.50
62055;BME280;48653;51.742;-1.256;2023-11-19T12:34:39;99898.70;;;11.03;62.30
62055;BME280;48653;51.742;-1.256;2023-11-19T12:37:05;99883.52;;;10.50;62.23
62055;BME280;48653;51.742;-1.256;2023-11-19T12:39:30;99888.54;;;10.73;62.16
62055;BME280;48653;51.742;-1.256;2023-11-19T12:41:54;99889.48;;;10.92;63.17
62055;BME280;48653;51.742;-1.256;2023-11-19T12:44:21;99882.13;;;10.75;62.88
62055;BME280;48653;51.742;-1.256;2023-11-19T12:46:45;99886.18;;;10.82;62.69